createdAt,value
2022-10-28T00:00:30.529Z,14.59
2022-10-28T00:01:30.592Z,14.59
2022-10-28T00:02:30.570Z,14.58
2022-10-28T00:03:30.535Z,14.68
2022-10-28T00:05:30.521Z,14.65
2022-10-28T00:06:30.513Z,14.59
2022-10-28T00:07:30.540Z,14.58
2022-10-28T00:08:30.507Z,14.58
2022-10-28T00:09:30.532Z,14.55
2022-10-28T00:10:30.504Z,14.58
2022-10-28T00:11:30.504Z,14.62
2022-10-28T00:12:30.497Z,14.55
2022-10-28T00:13:30.487Z,14.54
2022-10-28T00:14:30.494Z,14.58
2022-10-28T00:15:30.547Z,14.55
2022-10-28T00:16:30.488Z,14.58
2022-10-28T00:17:30.487Z,14.48
2022-10-28T00:18:30.485Z,14.53
2022-10-28T00:19:30.477Z,14.55
2022-10-28T00:20:30.492Z,14.54
2022-10-28T00:21:30.494Z,14.55
2022-10-28T00:22:30.484Z,14.53
2022-10-28T00:23:30.468Z,14.62
2022-10-28T00:24:30.493Z,14.60
2022-10-28T00:25:30.460Z,14.59
2022-10-28T00:26:30.454Z,14.58
2022-10-28T00:27:30.466Z,14.60
2022-10-28T00:28:30.466Z,14.62
2022-10-28T00:29:30.468Z,14.55
2022-10-28T00:31:30.470Z,14.62
2022-10-28T00:32:30.468Z,14.54
2022-10-28T00:33:30.444Z,14.60
2022-10-28T00:34:30.448Z,14.55
2022-10-28T00:35:30.456Z,14.59
2022-10-28T00:36:30.440Z,14.58
2022-10-28T00:37:30.424Z,14.62
2022-10-28T00:38:30.430Z,14.62
2022-10-28T00:39:30.431Z,14.60
2022-10-28T00:40:30.427Z,14.59
2022-10-28T00:41:30.422Z,14.59
2022-10-28T00:42:30.417Z,14.59
2022-10-28T00:43:30.432Z,14.63
2022-10-28T00:44:30.431Z,14.53
2022-10-28T00:45:30.416Z,14.54
2022-10-28T00:46:30.420Z,14.54
2022-10-28T00:47:30.403Z,14.54
2022-10-28T00:48:30.435Z,14.50
2022-10-28T00:49:30.393Z,14.50
2022-10-28T00:50:30.396Z,14.59
2022-10-28T00:51:30.406Z,14.48
2022-10-28T00:52:30.393Z,14.58
2022-10-28T00:53:30.395Z,14.51
2022-10-28T00:54:30.511Z,14.58
2022-10-28T00:55:30.415Z,14.55
2022-10-28T00:56:30.382Z,14.60
2022-10-28T00:57:30.388Z,14.53
2022-10-28T00:58:30.401Z,14.48
2022-10-28T00:59:30.374Z,14.51
2022-10-28T01:00:30.367Z,14.55
2022-10-28T01:01:30.440Z,14.50
2022-10-28T01:02:30.389Z,14.59
2022-10-28T01:03:30.371Z,14.50
2022-10-28T01:04:30.364Z,14.51
2022-10-28T01:05:30.360Z,14.48
2022-10-28T01:06:30.369Z,14.51
2022-10-28T01:07:30.358Z,14.48
2022-10-28T01:08:30.351Z,14.58
2022-10-28T01:09:30.348Z,14.53
2022-10-28T01:10:30.342Z,14.50
2022-10-28T01:11:30.346Z,14.58
2022-10-28T01:12:30.396Z,14.50
2022-10-28T01:13:30.342Z,14.48
2022-10-28T01:14:30.335Z,14.59
2022-10-28T01:15:30.361Z,14.54
2022-10-28T01:16:30.336Z,14.58
2022-10-28T01:17:30.329Z,14.59
2022-10-28T01:18:30.336Z,14.45
2022-10-28T01:19:30.412Z,14.59
2022-10-28T01:20:30.318Z,14.55
2022-10-28T01:21:30.320Z,14.59
2022-10-28T01:23:30.318Z,14.58
2022-10-28T01:24:30.318Z,14.45
2022-10-28T01:25:30.322Z,14.44
2022-10-28T01:26:30.303Z,14.45
2022-10-28T01:27:30.301Z,14.53
2022-10-28T01:28:30.303Z,14.44
2022-10-28T01:29:30.307Z,14.63
2022-10-28T01:30:30.301Z,14.54
2022-10-28T01:31:30.293Z,14.51
2022-10-28T01:32:30.295Z,14.47
2022-10-28T01:33:30.292Z,14.51
2022-10-28T01:34:30.293Z,14.54
2022-10-28T01:36:30.283Z,14.59
2022-10-28T01:37:30.294Z,14.45
2022-10-28T01:38:30.283Z,14.48
2022-10-28T01:39:30.277Z,14.55
2022-10-28T01:40:30.278Z,14.48
2022-10-28T01:41:30.260Z,14.63
2022-10-28T01:42:30.258Z,14.51
2022-10-28T01:43:30.271Z,14.45
2022-10-28T01:44:30.267Z,14.54
2022-10-28T01:45:30.258Z,14.53
2022-10-28T01:46:30.258Z,14.48
2022-10-28T01:47:30.263Z,14.54
2022-10-28T01:48:30.308Z,14.55
2022-10-28T01:49:30.280Z,14.54
2022-10-28T01:50:30.250Z,14.58
2022-10-28T01:51:30.245Z,14.55
2022-10-28T01:52:30.302Z,14.59
2022-10-28T01:53:30.258Z,14.55
2022-10-28T01:54:30.237Z,14.51
2022-10-28T01:55:30.230Z,14.53
2022-10-28T01:56:30.268Z,14.59
2022-10-28T01:57:30.229Z,14.47
2022-10-28T01:58:30.221Z,14.55
2022-10-28T01:59:30.219Z,14.47
2022-10-28T02:00:30.323Z,14.48
2022-10-28T02:01:30.463Z,14.53
2022-10-28T02:02:30.238Z,14.54
2022-10-28T02:03:30.208Z,14.53
2022-10-28T02:04:30.209Z,14.54
2022-10-28T02:05:30.201Z,14.54
2022-10-28T02:06:30.212Z,14.51
2022-10-28T02:07:30.215Z,14.48
2022-10-28T02:08:30.196Z,14.54
2022-10-28T02:09:30.199Z,14.53
2022-10-28T02:10:30.192Z,14.50
2022-10-28T02:11:30.197Z,14.54
2022-10-28T02:12:30.193Z,14.50
2022-10-28T02:13:30.180Z,14.51
2022-10-28T02:14:30.179Z,14.50
2022-10-28T02:15:30.196Z,14.50
2022-10-28T02:16:30.179Z,14.40
2022-10-28T02:17:30.178Z,14.44
2022-10-28T02:18:30.197Z,14.47
2022-10-28T02:19:30.168Z,14.35
2022-10-28T02:20:30.172Z,14.35
2022-10-28T02:21:30.157Z,14.36
2022-10-28T02:22:30.166Z,14.37
2022-10-28T02:23:30.165Z,14.36
2022-10-28T02:24:30.153Z,14.32
2022-10-28T02:25:30.156Z,14.43
2022-10-28T02:26:30.147Z,14.37
2022-10-28T02:27:30.147Z,14.40
2022-10-28T02:28:30.175Z,14.41
2022-10-28T02:29:30.147Z,14.43
2022-10-28T02:30:30.137Z,14.44
2022-10-28T02:31:30.163Z,14.36
2022-10-28T02:32:30.201Z,14.33
2022-10-28T02:33:30.137Z,14.43
2022-10-28T02:34:30.136Z,14.33
2022-10-28T02:35:30.135Z,14.33
2022-10-28T02:36:30.119Z,14.32
2022-10-28T02:37:30.117Z,14.30
2022-10-28T02:38:30.121Z,14.30
2022-10-28T02:39:30.119Z,14.22
2022-10-28T02:40:30.111Z,14.33
2022-10-28T02:41:30.113Z,14.36
2022-10-28T02:42:30.105Z,14.33
2022-10-28T02:43:30.119Z,14.28
2022-10-28T02:44:30.106Z,14.25
2022-10-28T02:45:30.096Z,14.22
2022-10-28T02:46:30.090Z,14.32
2022-10-28T02:47:30.096Z,14.29
2022-10-28T02:48:30.081Z,14.29
2022-10-28T02:49:30.089Z,14.30
2022-10-28T02:50:30.088Z,14.30
2022-10-28T02:51:30.080Z,14.26
2022-10-28T02:52:30.074Z,14.22
2022-10-28T02:53:30.073Z,14.18
2022-10-28T02:54:30.079Z,14.32
2022-10-28T02:55:30.073Z,14.30
2022-10-28T02:56:30.064Z,14.25
2022-10-28T02:57:30.055Z,14.22
2022-10-28T02:58:30.060Z,14.28
2022-10-28T02:59:30.056Z,14.23
2022-10-28T03:00:30.051Z,14.25
2022-10-28T03:01:30.253Z,14.23
2022-10-28T03:02:30.041Z,14.17
2022-10-28T03:03:30.050Z,14.18
2022-10-28T03:04:30.054Z,14.23
2022-10-28T03:05:30.051Z,14.11
2022-10-28T03:06:30.060Z,14.11
2022-10-28T03:07:30.059Z,14.12
2022-10-28T03:08:30.039Z,14.20
2022-10-28T03:09:30.025Z,14.08
2022-10-28T03:10:30.027Z,14.17
2022-10-28T03:11:30.024Z,14.08
2022-10-28T03:12:30.034Z,14.08
2022-10-28T03:13:30.020Z,14.11
2022-10-28T03:14:30.011Z,14.08
2022-10-28T03:15:30.019Z,14.07
2022-10-28T03:16:30.008Z,14.04
2022-10-28T03:17:30.019Z,14.04
2022-10-28T03:18:30.037Z,14.00
2022-10-28T03:19:30.006Z,14.05
2022-10-28T03:20:29.998Z,13.96
2022-10-28T03:21:30.002Z,14.03
2022-10-28T03:22:30.009Z,13.99
2022-10-28T03:23:30.016Z,13.95
2022-10-28T03:24:29.985Z,14.03
2022-10-28T03:25:29.995Z,13.97
2022-10-28T03:26:29.986Z,13.95
2022-10-28T03:27:29.977Z,13.92
2022-10-28T03:28:29.985Z,13.97
2022-10-28T03:29:29.971Z,13.89
2022-10-28T03:30:29.981Z,13.97
2022-10-28T03:31:29.969Z,13.89
2022-10-28T03:32:29.990Z,13.93
2022-10-28T03:33:29.965Z,13.89
2022-10-28T03:34:29.977Z,13.86
2022-10-28T03:35:29.978Z,13.90
2022-10-28T03:36:30.053Z,13.89
2022-10-28T03:37:29.967Z,13.92
2022-10-28T03:38:29.948Z,14.03
2022-10-28T03:39:29.946Z,13.92
2022-10-28T03:40:29.939Z,13.92
2022-10-28T03:41:29.938Z,14.03
2022-10-28T03:42:29.941Z,13.99
2022-10-28T03:43:29.945Z,13.95
2022-10-28T03:44:29.932Z,13.93
2022-10-28T03:46:32.294Z,13.93
2022-10-28T03:47:29.928Z,13.92
2022-10-28T03:48:29.938Z,13.92
2022-10-28T03:49:29.916Z,13.92
2022-10-28T03:50:29.918Z,13.92
2022-10-28T03:51:29.917Z,13.96
2022-10-28T03:52:29.914Z,13.92
2022-10-28T03:53:31.502Z,13.90
2022-10-28T03:54:29.902Z,13.90
2022-10-28T03:55:29.966Z,13.93
2022-10-28T03:56:29.892Z,13.96
2022-10-28T03:57:29.906Z,13.95
2022-10-28T03:58:29.962Z,13.96
2022-10-28T03:59:29.882Z,13.96
2022-10-28T04:00:29.902Z,13.93
2022-10-28T04:01:29.958Z,13.89
2022-10-28T04:02:29.931Z,13.90
2022-10-28T04:03:29.890Z,13.89
2022-10-28T04:04:30.739Z,13.97
2022-10-28T04:05:29.886Z,13.87
2022-10-28T04:06:29.869Z,13.92
2022-10-28T04:07:29.863Z,13.87
2022-10-28T04:08:29.863Z,13.85
2022-10-28T04:09:29.863Z,13.90
2022-10-28T04:10:29.966Z,13.90
2022-10-28T04:11:29.856Z,13.87
2022-10-28T04:12:29.845Z,13.90
2022-10-28T04:13:29.879Z,13.92
2022-10-28T04:14:29.847Z,13.93
2022-10-28T04:15:29.855Z,13.89
2022-10-28T04:16:29.841Z,13.92
2022-10-28T04:17:29.832Z,13.86
2022-10-28T04:18:29.830Z,13.86
2022-10-28T04:19:29.826Z,13.89
2022-10-28T04:20:29.816Z,13.89
2022-10-28T04:21:29.817Z,13.86
2022-10-28T04:22:29.818Z,13.90
2022-10-28T04:23:29.818Z,13.86
2022-10-28T04:24:29.815Z,13.89
2022-10-28T04:25:29.830Z,13.79
2022-10-28T04:26:29.819Z,13.77
2022-10-28T04:27:29.818Z,13.87
2022-10-28T04:28:29.811Z,13.77
2022-10-28T04:29:29.805Z,13.74
2022-10-28T04:30:29.789Z,13.83
2022-10-28T04:31:29.792Z,13.78
2022-10-28T04:32:29.788Z,13.79
2022-10-28T04:33:29.787Z,13.75
2022-10-28T04:34:29.803Z,13.79
2022-10-28T04:35:29.781Z,13.83
2022-10-28T04:36:29.783Z,13.79
2022-10-28T04:37:29.773Z,13.71
2022-10-28T04:38:29.787Z,13.74
2022-10-28T04:39:29.794Z,13.77
2022-10-28T04:40:29.779Z,13.74
2022-10-28T04:41:29.760Z,13.68
2022-10-28T04:42:29.753Z,13.68
2022-10-28T04:43:29.753Z,13.72
2022-10-28T04:44:29.753Z,13.70
2022-10-28T04:45:29.759Z,13.62
2022-10-28T04:46:29.788Z,13.62
2022-10-28T04:47:29.749Z,13.68
2022-10-28T04:48:29.739Z,13.62
2022-10-28T04:49:29.784Z,13.60
2022-10-28T04:50:29.750Z,13.62
2022-10-28T04:51:29.732Z,13.68
2022-10-28T04:52:29.728Z,13.68
2022-10-28T04:53:29.723Z,13.68
2022-10-28T04:54:29.738Z,13.70
2022-10-28T04:55:29.723Z,13.71
2022-10-28T04:56:29.742Z,13.72
2022-10-28T04:57:29.767Z,13.68
2022-10-28T04:58:29.708Z,13.65
2022-10-28T04:59:29.716Z,13.62
2022-10-28T05:00:29.724Z,13.67
2022-10-28T05:01:29.817Z,13.59
2022-10-28T05:02:29.746Z,13.65
2022-10-28T05:03:29.707Z,13.67
2022-10-28T05:04:29.697Z,13.56
2022-10-28T05:05:29.783Z,13.68
2022-10-28T05:06:29.689Z,13.63
2022-10-28T05:07:29.706Z,13.60
2022-10-28T05:08:29.747Z,13.59
2022-10-28T05:09:29.682Z,13.59
2022-10-28T05:10:29.687Z,13.57
2022-10-28T05:11:29.683Z,13.59
2022-10-28T05:12:29.667Z,13.59
2022-10-28T05:13:29.710Z,13.56
2022-10-28T05:14:29.671Z,13.54
2022-10-28T05:15:29.669Z,13.49
2022-10-28T05:16:29.680Z,13.49
2022-10-28T05:17:29.660Z,13.47
2022-10-28T05:18:29.669Z,13.54
2022-10-28T05:19:29.663Z,13.52
2022-10-28T05:20:29.638Z,13.41
2022-10-28T05:21:29.637Z,13.49
2022-10-28T05:22:29.640Z,13.42
2022-10-28T05:23:30.830Z,13.44
2022-10-28T05:24:29.638Z,13.44
2022-10-28T05:25:29.639Z,13.46
2022-10-28T05:26:29.633Z,13.44
2022-10-28T05:27:29.641Z,13.41
2022-10-28T05:28:29.620Z,13.49
2022-10-28T05:29:33.151Z,13.46
2022-10-28T05:30:29.602Z,13.44
2022-10-28T05:31:29.603Z,13.41
2022-10-28T05:32:29.614Z,13.35
2022-10-28T05:33:29.600Z,13.54
2022-10-28T05:34:29.671Z,13.49
2022-10-28T05:35:29.597Z,13.33
2022-10-28T05:36:29.599Z,13.47
2022-10-28T05:37:29.657Z,13.50
2022-10-28T05:38:29.597Z,13.47
2022-10-28T05:39:29.590Z,13.46
2022-10-28T05:40:29.702Z,13.52
2022-10-28T05:41:29.580Z,13.47
2022-10-28T05:42:29.570Z,13.46
2022-10-28T05:43:29.566Z,13.49
2022-10-28T05:44:29.589Z,13.56
2022-10-28T05:46:29.584Z,13.53
2022-10-28T05:47:29.558Z,13.52
2022-10-28T05:48:29.588Z,13.47
2022-10-28T05:49:29.582Z,13.54
2022-10-28T05:50:29.554Z,13.49
2022-10-28T05:51:29.551Z,13.53
2022-10-28T05:52:29.541Z,13.50
2022-10-28T05:53:29.536Z,13.52
2022-10-28T05:54:29.531Z,13.44
2022-10-28T05:55:29.555Z,13.42
2022-10-28T05:56:29.527Z,13.54
2022-10-28T05:57:29.529Z,13.50
2022-10-28T05:58:29.528Z,13.56
2022-10-28T05:59:29.524Z,13.56
2022-10-28T06:00:29.511Z,13.59
2022-10-28T06:01:29.606Z,13.63
2022-10-28T06:02:29.518Z,13.67
2022-10-28T06:03:31.196Z,13.68
2022-10-28T06:04:29.505Z,13.72
2022-10-28T06:05:29.494Z,13.68
2022-10-28T06:06:29.501Z,13.74
2022-10-28T06:07:29.496Z,13.74
2022-10-28T06:08:29.505Z,13.74
2022-10-28T06:09:29.509Z,13.79
2022-10-28T06:10:29.490Z,13.85
2022-10-28T06:11:27.942Z,13.77
2022-10-28T06:12:27.984Z,13.79
2022-10-28T06:13:27.934Z,13.86
2022-10-28T06:14:27.942Z,13.86
2022-10-28T06:15:27.943Z,13.89
2022-10-28T06:16:27.960Z,13.95
2022-10-28T06:17:27.931Z,13.92
2022-10-28T06:18:27.947Z,13.90
2022-10-28T06:19:27.955Z,13.90
2022-10-28T06:20:27.959Z,13.87
2022-10-28T06:21:27.920Z,13.90
2022-10-28T06:22:27.918Z,13.87
2022-10-28T06:23:27.918Z,13.95
2022-10-28T06:24:27.920Z,13.95
2022-10-28T06:25:27.922Z,13.99
2022-10-28T06:26:27.908Z,13.89
2022-10-28T06:27:27.918Z,13.97
2022-10-28T06:28:27.923Z,14.00
2022-10-28T06:29:27.906Z,14.05
2022-10-28T06:30:27.897Z,13.99
2022-10-28T06:31:27.902Z,13.99
2022-10-28T06:32:27.893Z,13.99
2022-10-28T06:33:28.073Z,14.04
2022-10-28T06:34:27.886Z,14.05
2022-10-28T06:35:27.926Z,14.05
2022-10-28T06:36:27.906Z,14.04
2022-10-28T06:37:27.894Z,14.04
2022-10-28T06:38:27.896Z,14.04
2022-10-28T06:39:28.015Z,14.14
2022-10-28T06:40:27.878Z,14.11
2022-10-28T06:41:27.898Z,14.17
2022-10-28T06:42:27.877Z,14.15
2022-10-28T06:43:27.880Z,14.18
2022-10-28T06:44:27.883Z,14.22
2022-10-28T06:45:27.879Z,14.17
2022-10-28T06:46:27.867Z,14.18
2022-10-28T06:47:29.393Z,14.20
2022-10-28T06:48:29.394Z,14.32
2022-10-28T06:49:29.387Z,14.28
2022-10-28T06:50:29.374Z,14.30
2022-10-28T06:51:29.429Z,14.25
2022-10-28T06:52:29.387Z,14.29
2022-10-28T06:53:29.391Z,14.23
2022-10-28T06:54:29.371Z,14.35
2022-10-28T06:55:29.360Z,14.32
2022-10-28T06:56:29.365Z,14.32
2022-10-28T06:57:29.500Z,14.40
2022-10-28T06:58:29.403Z,14.32
2022-10-28T06:59:29.366Z,14.44
2022-10-28T07:00:29.367Z,14.43
2022-10-28T07:01:29.426Z,14.36
2022-10-28T07:02:29.441Z,14.36
2022-10-28T07:03:29.380Z,14.47
2022-10-28T07:04:29.407Z,14.51
2022-10-28T07:05:29.353Z,14.50
2022-10-28T07:06:29.349Z,14.53
2022-10-28T07:07:29.369Z,14.54
2022-10-28T07:08:29.342Z,14.54
2022-10-28T07:09:29.394Z,14.51
2022-10-28T07:10:29.387Z,14.50
2022-10-28T07:11:29.339Z,14.63
2022-10-28T07:12:29.350Z,14.50
2022-10-28T07:13:29.381Z,14.54
2022-10-28T07:14:29.347Z,14.59
2022-10-28T07:15:29.333Z,14.59
2022-10-28T07:16:29.328Z,14.66
2022-10-28T07:17:29.326Z,14.70
2022-10-28T07:18:29.335Z,14.68
2022-10-28T07:19:29.325Z,14.66
2022-10-28T07:20:29.322Z,14.66
2022-10-28T07:21:29.335Z,14.77
2022-10-28T07:22:29.374Z,14.69
2022-10-28T07:23:29.314Z,14.81
2022-10-28T07:24:29.375Z,14.79
2022-10-28T07:25:29.308Z,14.85
2022-10-28T07:26:29.308Z,14.82
2022-10-28T07:27:29.332Z,14.89
2022-10-28T07:28:29.337Z,14.89
2022-10-28T07:29:29.302Z,14.91
2022-10-28T07:30:29.304Z,14.96
2022-10-28T07:31:29.304Z,14.94
2022-10-28T07:32:29.378Z,14.97
2022-10-28T07:33:29.302Z,14.97
2022-10-28T07:34:29.305Z,15.03
2022-10-28T07:35:29.356Z,15.00
2022-10-28T07:36:29.315Z,15.11
2022-10-28T07:37:29.298Z,14.99
2022-10-28T07:38:29.296Z,15.11
2022-10-28T07:39:29.346Z,15.06
2022-10-28T07:40:29.286Z,15.10
2022-10-28T07:41:29.288Z,15.06
2022-10-28T07:42:29.305Z,15.10
2022-10-28T07:43:29.299Z,15.18
2022-10-28T07:44:29.292Z,15.19
2022-10-28T07:45:29.291Z,15.29
2022-10-28T07:46:29.274Z,15.29
2022-10-28T07:47:29.276Z,15.31
2022-10-28T07:48:29.294Z,15.46
2022-10-28T07:49:29.283Z,15.57
2022-10-28T07:50:29.282Z,15.72
2022-10-28T07:51:29.266Z,15.83
2022-10-28T07:52:29.269Z,16.04
2022-10-28T07:53:29.281Z,16.46
2022-10-28T07:54:29.258Z,16.68
2022-10-28T07:55:29.311Z,17.01
2022-10-28T07:56:29.289Z,17.23
2022-10-28T07:57:29.260Z,17.51
2022-10-28T07:58:29.257Z,17.74
2022-10-28T07:59:29.277Z,17.92
2022-10-28T08:00:29.282Z,17.85
2022-10-28T08:01:29.384Z,17.74
2022-10-28T08:02:29.287Z,17.64
2022-10-28T08:03:34.657Z,17.45
2022-10-28T08:04:29.276Z,17.31
2022-10-28T08:05:29.274Z,17.23
2022-10-28T08:06:29.272Z,17.15
2022-10-28T08:07:29.252Z,17.04
2022-10-28T08:08:29.254Z,16.90
2022-10-28T08:09:29.258Z,16.79
2022-10-28T08:10:29.247Z,16.75
2022-10-28T08:11:29.257Z,16.78
2022-10-28T08:12:29.271Z,16.74
2022-10-28T08:13:29.249Z,16.74
2022-10-28T08:14:29.263Z,16.86
2022-10-28T08:15:29.245Z,17.02
2022-10-28T08:16:29.265Z,17.06
2022-10-28T08:17:29.240Z,17.11
2022-10-28T08:18:29.283Z,17.12
2022-10-28T08:19:29.255Z,17.16
2022-10-28T08:20:29.248Z,17.16
2022-10-28T08:21:29.243Z,17.16
2022-10-28T08:22:29.246Z,17.19
2022-10-28T08:23:29.246Z,17.12
2022-10-28T08:24:29.249Z,17.24
2022-10-28T08:25:29.248Z,17.24
2022-10-28T08:26:29.252Z,17.23
2022-10-28T08:27:29.252Z,17.23
2022-10-28T08:28:29.255Z,17.11
2022-10-28T08:29:30.145Z,17.08
2022-10-28T08:30:36.539Z,17.08
2022-10-28T08:31:29.254Z,17.11
2022-10-28T08:32:29.281Z,17.09
2022-10-28T08:33:29.259Z,17.23
2022-10-28T08:34:29.701Z,17.22
2022-10-28T08:35:29.349Z,17.39
2022-10-28T08:36:29.287Z,17.48
2022-10-28T08:37:29.318Z,17.64
2022-10-28T08:38:29.275Z,17.79
2022-10-28T08:39:29.273Z,17.86
2022-10-28T08:40:29.278Z,18.01
2022-10-28T08:41:29.297Z,18.15
2022-10-28T08:42:29.303Z,18.11
2022-10-28T08:43:40.255Z,18.07
2022-10-28T08:44:29.291Z,17.94
2022-10-28T08:45:29.292Z,17.86
2022-10-28T08:46:29.307Z,17.72
2022-10-28T08:47:29.302Z,17.70
2022-10-28T08:48:29.308Z,17.63
2022-10-28T08:49:29.343Z,17.41
2022-10-28T08:50:29.309Z,17.33
2022-10-28T08:51:29.335Z,17.34
2022-10-28T08:52:29.333Z,17.31
2022-10-28T08:53:29.321Z,17.30
2022-10-28T08:54:29.323Z,17.19
2022-10-28T08:55:29.319Z,17.22
2022-10-28T08:56:29.324Z,17.24
2022-10-28T08:57:29.333Z,17.27
2022-10-28T08:58:29.334Z,17.09
2022-10-28T08:59:29.334Z,17.16
2022-10-28T09:00:29.329Z,17.11
2022-10-28T09:01:29.580Z,17.12
2022-10-28T09:02:29.357Z,17.29
2022-10-28T09:03:29.334Z,17.23
2022-10-28T09:04:29.327Z,17.30
2022-10-28T09:05:29.335Z,17.41
2022-10-28T09:06:29.335Z,17.48
2022-10-28T09:07:29.333Z,17.41
2022-10-28T09:08:29.344Z,17.42
2022-10-28T09:09:29.350Z,17.44
2022-10-28T09:10:29.346Z,17.41
2022-10-28T09:11:29.340Z,17.45
2022-10-28T09:12:29.339Z,17.44
2022-10-28T09:13:29.337Z,17.46
2022-10-28T09:14:29.365Z,17.45
2022-10-28T09:15:29.405Z,17.44
2022-10-28T09:16:29.345Z,17.45
2022-10-28T09:17:29.342Z,17.45
2022-10-28T09:18:29.348Z,17.57
2022-10-28T09:19:29.361Z,17.64
2022-10-28T09:20:29.385Z,17.72
2022-10-28T09:21:29.340Z,17.78
2022-10-28T09:22:29.355Z,17.79
2022-10-28T09:23:29.353Z,17.76
2022-10-28T09:24:29.355Z,17.90
2022-10-28T09:25:29.347Z,17.95
2022-10-28T09:26:29.357Z,18.07
2022-10-28T09:27:29.358Z,18.07
2022-10-28T09:28:29.348Z,18.11
2022-10-28T09:29:29.397Z,18.13
2022-10-28T09:30:29.360Z,18.15
2022-10-28T09:31:29.347Z,18.18
2022-10-28T09:32:29.348Z,18.18
2022-10-28T09:33:29.347Z,18.22
2022-10-28T09:34:29.415Z,18.33
2022-10-28T09:35:29.357Z,18.31
2022-10-28T09:36:29.358Z,18.33
2022-10-28T09:37:29.368Z,18.37
2022-10-28T09:38:29.360Z,18.44
2022-10-28T09:39:29.360Z,18.40
2022-10-28T09:40:29.354Z,18.38
2022-10-28T09:41:29.355Z,18.44
2022-10-28T09:42:29.432Z,18.56
2022-10-28T09:43:29.360Z,18.53
2022-10-28T09:44:29.359Z,18.59
2022-10-28T09:45:29.368Z,18.60
2022-10-28T09:46:33.217Z,18.74
2022-10-28T09:47:29.440Z,18.74
2022-10-28T09:48:29.404Z,18.80
2022-10-28T09:49:29.352Z,18.83
2022-10-28T09:50:29.374Z,18.84
2022-10-28T09:51:29.359Z,18.93
2022-10-28T09:52:29.376Z,18.89
2022-10-28T09:53:33.719Z,18.90
2022-10-28T09:54:29.395Z,18.90
2022-10-28T09:55:29.368Z,19.00
2022-10-28T09:56:29.371Z,18.93
2022-10-28T09:57:29.373Z,18.92
2022-10-28T09:58:29.477Z,18.96
2022-10-28T09:59:29.364Z,19.09
2022-10-28T10:00:29.399Z,18.98
2022-10-28T10:01:29.441Z,19.02
2022-10-28T10:02:29.443Z,19.02
2022-10-28T10:03:29.419Z,19.02
2022-10-28T10:04:29.377Z,18.99
2022-10-28T10:05:29.389Z,19.02
2022-10-28T10:06:29.376Z,19.02
2022-10-28T10:07:29.375Z,19.09
2022-10-28T10:08:29.381Z,19.09
2022-10-28T10:09:29.375Z,19.07
2022-10-28T10:10:29.386Z,19.07
2022-10-28T10:11:29.381Z,19.09
2022-10-28T10:12:29.375Z,18.92
2022-10-28T10:13:29.409Z,18.92
2022-10-28T10:14:29.388Z,19.00
2022-10-28T10:15:29.388Z,19.04
2022-10-28T10:16:29.381Z,18.93
2022-10-28T10:17:29.399Z,18.92
2022-10-28T10:18:29.393Z,18.98
2022-10-28T10:19:29.384Z,18.99
2022-10-28T10:20:29.389Z,19.09
2022-10-28T10:21:29.381Z,18.96
2022-10-28T10:22:29.386Z,18.98
2022-10-28T10:23:29.416Z,18.96
2022-10-28T10:24:29.392Z,19.09
2022-10-28T10:25:29.389Z,19.08
2022-10-28T10:26:29.389Z,19.04
2022-10-28T10:27:29.389Z,19.08
2022-10-28T10:28:29.403Z,19.09
2022-10-28T10:29:29.391Z,19.08
2022-10-28T10:30:29.397Z,19.02
2022-10-28T10:31:29.396Z,19.09
2022-10-28T10:32:29.403Z,19.00
2022-10-28T10:33:29.397Z,19.00
2022-10-28T10:34:29.412Z,19.00
2022-10-28T10:35:29.409Z,19.02
2022-10-28T10:36:29.395Z,19.11
2022-10-28T10:37:29.470Z,19.09
2022-10-28T10:38:29.402Z,19.14
2022-10-28T10:39:29.437Z,19.14
2022-10-28T10:40:29.416Z,19.18
2022-10-28T10:41:29.439Z,19.14
2022-10-28T10:42:29.414Z,19.15
2022-10-28T10:43:29.417Z,19.21
2022-10-28T10:44:29.421Z,19.19
2022-10-28T10:45:29.411Z,19.22
2022-10-28T10:46:29.416Z,19.21
2022-10-28T10:47:29.423Z,19.29
2022-10-28T10:48:29.453Z,19.31
2022-10-28T10:49:29.423Z,19.26
2022-10-28T10:50:29.415Z,19.31
2022-10-28T10:51:29.446Z,19.30
2022-10-28T10:52:29.445Z,19.29
2022-10-28T10:53:29.406Z,19.34
2022-10-28T10:54:29.414Z,19.39
2022-10-28T10:55:29.427Z,19.36
2022-10-28T10:56:29.450Z,19.30
2022-10-28T10:57:29.462Z,19.34
2022-10-28T10:58:29.442Z,19.37
2022-10-28T10:59:29.423Z,19.45
2022-10-28T11:00:29.448Z,19.40
2022-10-28T11:01:29.545Z,19.47
2022-10-28T11:02:29.512Z,19.47
2022-10-28T11:03:29.430Z,19.48
2022-10-28T11:04:29.422Z,19.45
2022-10-28T11:05:37.734Z,19.56
2022-10-28T11:06:29.430Z,19.55
2022-10-28T11:07:29.430Z,19.62
2022-10-28T11:08:29.437Z,19.59
2022-10-28T11:09:29.423Z,19.58
2022-10-28T11:10:29.426Z,19.54
2022-10-28T11:11:29.431Z,19.58
2022-10-28T11:12:29.433Z,19.62
2022-10-28T11:13:29.439Z,19.64
2022-10-28T11:14:29.433Z,19.69
2022-10-28T11:15:29.429Z,19.70
2022-10-28T11:16:29.426Z,19.71
2022-10-28T11:17:29.485Z,19.70
2022-10-28T11:18:29.435Z,19.73
2022-10-28T11:19:29.436Z,19.77
2022-10-28T11:20:29.430Z,19.84
2022-10-28T11:21:29.436Z,19.73
2022-10-28T11:22:29.436Z,19.81
2022-10-28T11:23:29.457Z,19.79
2022-10-28T11:24:29.456Z,19.76
2022-10-28T11:25:29.440Z,19.91
2022-10-28T11:26:29.449Z,19.86
2022-10-28T11:27:29.443Z,19.85
2022-10-28T11:28:29.449Z,19.88
2022-10-28T11:29:29.458Z,19.95
2022-10-28T11:30:29.453Z,19.88
2022-10-28T11:31:29.447Z,20.00
2022-10-28T11:32:29.444Z,19.95
2022-10-28T11:33:30.810Z,20.02
2022-10-28T11:34:29.502Z,20.03
2022-10-28T11:35:29.445Z,19.99
2022-10-28T11:36:29.465Z,20.09
2022-10-28T11:37:29.458Z,20.03
2022-10-28T11:38:29.458Z,20.09
2022-10-28T11:39:29.454Z,20.09
2022-10-28T11:40:29.467Z,20.10
2022-10-28T11:41:29.475Z,20.16
2022-10-28T11:42:29.456Z,20.13
2022-10-28T11:43:29.490Z,20.10
2022-10-28T11:44:29.548Z,20.13
2022-10-28T11:45:29.462Z,20.22
2022-10-28T11:46:29.463Z,20.19
2022-10-28T11:47:29.475Z,20.31
2022-10-28T11:48:29.471Z,20.28
2022-10-28T11:49:29.471Z,20.19
2022-10-28T11:50:29.524Z,20.34
2022-10-28T11:51:29.477Z,20.29
2022-10-28T11:52:29.472Z,20.29
2022-10-28T11:53:29.482Z,20.36
2022-10-28T11:54:29.479Z,20.37
2022-10-28T11:55:29.476Z,20.39
2022-10-28T11:56:29.469Z,20.37
2022-10-28T11:57:29.481Z,20.41
2022-10-28T11:58:29.482Z,20.47
2022-10-28T11:59:29.500Z,20.41
2022-10-28T12:00:29.479Z,20.37
2022-10-28T12:01:29.540Z,20.39
2022-10-28T12:02:29.610Z,20.37
2022-10-28T12:03:29.512Z,20.39
2022-10-28T12:04:29.550Z,20.39
2022-10-28T12:05:29.725Z,20.51
2022-10-28T12:06:29.512Z,20.43
2022-10-28T12:07:29.490Z,20.41
2022-10-28T12:08:29.580Z,20.47
2022-10-28T12:09:29.493Z,20.51
2022-10-28T12:10:29.506Z,20.48
2022-10-28T12:11:29.493Z,20.51
2022-10-28T12:12:29.500Z,20.51
2022-10-28T12:13:29.505Z,20.47
2022-10-28T12:14:29.507Z,20.48
2022-10-28T12:15:29.513Z,20.43
2022-10-28T12:16:29.514Z,20.52
2022-10-28T12:17:29.509Z,20.56
2022-10-28T12:18:29.515Z,20.59
2022-10-28T12:19:29.547Z,20.62
2022-10-28T12:20:29.515Z,20.63
2022-10-28T12:21:29.615Z,20.67
2022-10-28T12:22:29.530Z,20.69
2022-10-28T12:23:29.543Z,20.78
2022-10-28T12:24:29.558Z,20.77
2022-10-28T12:25:29.594Z,20.70
2022-10-28T12:26:29.574Z,20.75
2022-10-28T12:27:29.529Z,20.78
2022-10-28T12:28:29.523Z,20.74
2022-10-28T12:29:29.527Z,20.81
2022-10-28T12:30:29.541Z,20.75
2022-10-28T12:31:29.538Z,20.77
2022-10-28T12:32:29.551Z,20.81
2022-10-28T12:33:29.574Z,20.78
2022-10-28T12:34:29.571Z,20.80
2022-10-28T12:35:29.577Z,20.82
2022-10-28T12:36:29.540Z,20.81
2022-10-28T12:37:29.548Z,20.80
2022-10-28T12:38:29.560Z,20.82
2022-10-28T12:39:29.560Z,20.80
2022-10-28T12:40:29.543Z,20.82
2022-10-28T12:41:29.626Z,20.81
2022-10-28T12:42:29.561Z,20.80
2022-10-28T12:43:29.549Z,20.77
2022-10-28T12:44:29.567Z,20.82
2022-10-28T12:45:29.580Z,20.82
2022-10-28T12:46:29.590Z,20.85
2022-10-28T12:47:29.556Z,20.87
2022-10-28T12:48:29.571Z,20.82
2022-10-28T12:49:29.568Z,20.88
2022-10-28T12:50:29.596Z,20.92
2022-10-28T12:51:29.575Z,20.84
2022-10-28T12:52:29.653Z,20.88
2022-10-28T12:53:29.583Z,20.90
2022-10-28T12:54:29.573Z,20.96
2022-10-28T12:55:29.575Z,20.97
2022-10-28T12:56:29.641Z,20.95
2022-10-28T12:57:29.583Z,20.95
2022-10-28T12:58:29.584Z,20.93